Time;durP1;ratioP1;P1;durP2;ratioP2;P2;SDS_P1;SDS_P2;PMS_P1;PMS_P2;Temp;Humidity;BMP_temperature;BMP_pressure;BME280_temperature;BME280_humidity;BME280_pressure;Samples;Min_cycle;Max_cycle;Signal;HPM_P1;HPM_P2
2023/05/23 00:00:22;;;;;;;;;;;;;;;;;;5033121;28;1264;-67
2023/05/23 00:02:48;;;;;;;;;;;;;;;;;;5016123;28;1918;-68
2023/05/23 00:05:14;;;;;;;;;;;;;;;;;;5034637;28;853;-67
2023/05/23 00:07:39;;;;;;;;;;;;;;;;;;5034465;28;849;-67
2023/05/23 00:10:05;;;;;;;;;;;;;;;;;;5032833;28;1247;-68
2023/05/23 00:12:32;;;;;;;;;;;;;;;;;;5034153;28;915;-68
2023/05/23 00:14:57;;;;;;;;;;;;;;;;;;5033942;28;833;-67
2023/05/23 00:17:24;;;;;;;;;;;;;;;;;;5032486;28;1262;-67
2023/05/23 00:19:49;;;;;;;;;;;;;;;;;;5032787;28;814;-67
2023/05/23 00:22:15;;;;;;;;;;;;;;;;;;5048953;28;1347;-67
2023/05/23 00:24:40;;;;;;;;;;;;;;;;;;5032542;28;1898;-68
2023/05/23 00:27:06;;;;;;;;;;;;;;;;;;5033093;28;1057;-67
2023/05/23 00:29:31;;;;;;;;;;;;;;;;;;5034329;28;912;-67
2023/05/23 00:31:56;;;;;;;;;;;;;;;;;;5032550;28;938;-67
2023/05/23 00:34:22;;;;;;;;;;;;;;;;;;5034285;28;853;-67
2023/05/23 00:36:49;;;;;;;;;;;;;;;;;;5016093;28;1289;-67
2023/05/23 00:39:20;;;;;;;;;;;;;;;;;;5016784;28;1216;-67
2023/05/23 00:41:46;;;;;;;;;;;;;;;;;;5032963;28;1232;-67
2023/05/23 00:44:12;;;;;;;;;;;;;;;;;;5032088;28;1898;-67
2023/05/23 00:46:37;;;;;;;;;;;;;;;;;;5031465;28;1022;-67
2023/05/23 00:49:02;;;;;;;;;;;;;;;;;;5031503;28;1343;-67
2023/05/23 00:51:28;;;;;;;;;;;;;;;;;;5031607;28;884;-67
2023/05/23 00:53:53;;;;;;;;;;;;;;;;;;5015083;28;1200;-67
2023/05/23 00:56:19;;;;;;;;;;;;;;;;;;5031659;28;1241;-67
2023/05/23 00:58:46;;;;;;;;;;;;;;;;;;5032010;28;1244;-68
2023/05/23 01:01:11;;;;;;;;;;;;;;;;;;5032488;28;829;-67
2023/05/23 01:03:37;;;;;;;;;;;;;;;;;;5033192;28;1969;-67
2023/05/23 01:06:02;;;;;;;;;;;;;;;;;;5031386;28;1196;-67
2023/05/23 01:08:28;;;;;;;;;;;;;;;;;;5032202;28;841;-67
2023/05/23 01:10:55;;;;;;;;;;;;;;;;;;5033129;28;841;-67
2023/05/23 01:13:29;;;;;;;;;;;;;;;;;;5033286;28;797;-67
2023/05/23 01:15:55;;;;;;;;;;;;;;;;;;5033351;28;888;-67
2023/05/23 01:18:23;;;;;;;;;;;;;;;;;;5031531;28;1341;-67
2023/05/23 01:20:58;;;;;;;;;;;;;;;;;;5031533;28;993;-67
2023/05/23 01:23:26;;;;;;;;;;;;;;;;;;5032797;28;1960;-67
2023/05/23 01:26:00;;;;;;;;;;;;;;;;;;5032485;28;903;-67
2023/05/23 01:28:31;;;;;;;;;;;;;;;;;;5032539;28;951;-67
2023/05/23 01:30:57;;;;;;;;;;;;;;;;;;5031159;28;1203;-67
2023/05/23 01:33:24;;;;;;;;;;;;;;;;;;5014798;28;1299;-67
2023/05/23 01:35:49;;;;;;;;;;;;;;;;;;5031157;28;1365;-68
2023/05/23 01:38:15;;;;;;;;;;;;;;;;;;5031529;28;997;-67
2023/05/23 01:40:40;;;;;;;;;;;;;;;;;;5031632;28;1228;-67
2023/05/23 01:43:06;;;;;;;;;;;;;;;;;;5032166;28;1898;-67
2023/05/23 01:45:32;;;;;;;;;;;;;;;;;;5014570;28;1292;-67
2023/05/23 01:47:58;;;;;;;;;;;;;;;;;;5030814;28;1187;-67
2023/05/23 01:50:23;;;;;;;;;;;;;;;;;;5032310;28;852;-67
2023/05/23 01:52:48;;;;;;;;;;;;;;;;;;5031873;28;845;-67
2023/05/23 01:55:17;;;;;;;;;;;;;;;;;;5014678;28;1177;-67
2023/05/23 01:57:43;;;;;;;;;;;;;;;;;;5032757;28;833;-67
2023/05/23 02:00:11;;;;;;;;;;;;;;;;;;5031060;28;1190;-67
2023/05/23 02:02:36;;;;;;;;;;;;;;;;;;5031344;28;1914;-67
2023/05/23 02:05:01;;;;;;;;;;;;;;;;;;5032306;28;923;-67
2023/05/23 02:07:27;;;;;;;;;;;;;;;;;;5032430;28;916;-67
2023/05/23 02:09:52;;;;;;;;;;;;;;;;;;5032253;28;889;-68
2023/05/23 02:12:17;;;;;;;;;;;;;;;;;;5031138;28;1191;-67
2023/05/23 02:14:43;;;;;;;;;;;;;;;;;;5030888;28;1229;-67
2023/05/23 02:17:11;;;;;;;;;;;;;;;;;;5030418;28;896;-67
2023/05/23 02:19:36;;;;;;;;;;;;;;;;;;5031461;28;832;-67
2023/05/23 02:22:02;;;;;;;;;;;;;;;;;;5030001;28;850;-67
2023/05/23 02:24:27;;;;;;;;;;;;;;;;;;5031405;28;1914;-67
2023/05/23 02:26:53;;;;;;;;;;;;;;;;;;5030201;28;845;-67
2023/05/23 02:29:18;;;;;;;;;;;;;;;;;;5031797;28;822;-67
2023/05/23 02:31:43;;;;;;;;;;;;;;;;;;5031579;28;862;-67
2023/05/23 02:34:08;;;;;;;;;;;;;;;;;;5031833;28;860;-67
2023/05/23 02:36:35;;;;;;;;;;;;;;;;;;5031684;28;952;-67
2023/05/23 02:39:01;;;;;;;;;;;;;;;;;;5031213;28;970;-67
2023/05/23 02:41:26;;;;;;;;;;;;;;;;;;5030549;28;1287;-67
2023/05/23 02:43:52;;;;;;;;;;;;;;;;;;5031203;28;1983;-67
2023/05/23 02:46:17;;;;;;;;;;;;;;;;;;5031012;28;1008;-67
2023/05/23 02:48:43;;;;;;;;;;;;;;;;;;5031317;28;1129;-67
2023/05/23 02:51:08;;;;;;;;;;;;;;;;;;5014226;28;1437;-67
2023/05/23 02:53:33;;;;;;;;;;;;;;;;;;5031329;28;841;-67
2023/05/23 02:55:59;;;;;;;;;;;;;;;;;;5029817;28;1366;-67
2023/05/23 02:58:24;;;;;;;;;;;;;;;;;;5031400;28;785;-67
2023/05/23 03:00:50;;;;;;;;;;;;;;;;;;5012794;28;1204;-67
2023/05/23 03:03:16;;;;;;;;;;;;;;;;;;5029711;28;1969;-67
2023/05/23 03:05:41;;;;;;;;;;;;;;;;;;5029892;28;1156;-67
2023/05/23 03:08:07;;;;;;;;;;;;;;;;;;5030928;28;947;-67
2023/05/23 03:10:32;;;;;;;;;;;;;;;;;;5029183;28;1199;-67
2023/05/23 03:12:58;;;;;;;;;;;;;;;;;;5029451;28;909;-67
2023/05/23 03:15:23;;;;;;;;;;;;;;;;;;5030999;28;863;-67
2023/05/23 03:17:48;;;;;;;;;;;;;;;;;;5028952;28;1382;-67
2023/05/23 03:20:14;;;;;;;;;;;;;;;;;;5029586;28;896;-67
2023/05/23 03:22:42;;;;;;;;;;;;;;;;;;5030004;28;2001;-68
2023/05/23 03:25:07;;;;;;;;;;;;;;;;;;5030313;28;896;-67
2023/05/23 03:27:32;;;;;;;;;;;;;;;;;;5030097;28;1330;-67
2023/05/23 03:29:58;;;;;;;;;;;;;;;;;;5013064;28;1087;-67
2023/05/23 03:32:24;;;;;;;;;;;;;;;;;;5031404;28;936;-67
2023/05/23 03:34:49;;;;;;;;;;;;;;;;;;5029292;28;834;-67
2023/05/23 03:37:14;;;;;;;;;;;;;;;;;;5029761;28;1477;-67
2023/05/23 03:39:40;;;;;;;;;;;;;;;;;;5031461;28;1081;-68
2023/05/23 03:42:05;;;;;;;;;;;;;;;;;;5030417;28;794;-67
2023/05/23 03:44:30;;;;;;;;;;;;;;;;;;5028981;28;1955;-67
2023/05/23 03:46:55;;;;;;;;;;;;;;;;;;5015884;28;1371;-67
2023/05/23 03:49:21;;;;;;;;;;;;;;;;;;5052211;28;1267;-67
2023/05/23 03:51:46;;;;;;;;;;;;;;;;;;5069754;28;836;-67
2023/05/23 03:54:11;;;;;;;;;;;;;;;;;;5052421;28;1331;-67
2023/05/23 03:56:37;;;;;;;;;;;;;;;;;;5052643;28;971;-67
2023/05/23 03:59:02;;;;;;;;;;;;;;;;;;5052016;28;1409;-67
2023/05/23 04:01:27;;;;;;;;;;;;;;;;;;5070294;28;837;-67
2023/05/23 04:03:53;;;;;;;;;;;;;;;;;;5069694;28;1923;-67
2023/05/23 04:06:19;;;;;;;;;;;;;;;;;;5052489;28;891;-67
2023/05/23 04:08:44;;;;;;;;;;;;;;;;;;5070403;28;920;-67
2023/05/23 04:11:10;;;;;;;;;;;;;;;;;;5052547;28;907;-68
2023/05/23 04:13:35;;;;;;;;;;;;;;;;;;5052270;28;850;-67
2023/05/23 04:16:04;;;;;;;;;;;;;;;;;;5051967;28;1223;-67
2023/05/23 04:18:29;;;;;;;;;;;;;;;;;;5070296;28;856;-67
2023/05/23 04:20:55;;;;;;;;;;;;;;;;;;5069731;28;987;-67
2023/05/23 04:23:20;;;;;;;;;;;;;;;;;;5052011;28;1933;-67
2023/05/23 04:25:47;;;;;;;;;;;;;;;;;;5051928;28;1251;-67
2023/05/23 04:28:12;;;;;;;;;;;;;;;;;;5052889;28;900;-67
2023/05/23 04:30:38;;;;;;;;;;;;;;;;;;5070313;28;821;-67
2023/05/23 04:33:03;;;;;;;;;;;;;;;;;;5069726;28;818;-67
2023/05/23 04:35:28;;;;;;;;;;;;;;;;;;5052008;28;1309;-67
2023/05/23 04:37:55;;;;;;;;;;;;;;;;;;5035050;28;1254;-67
2023/05/23 04:40:23;;;;;;;;;;;;;;;;;;5070229;28;884;-67
2023/05/23 04:42:50;;;;;;;;;;;;;;;;;;5072790;28;1961;-67
2023/05/23 04:45:16;;;;;;;;;;;;;;;;;;5056583;28;1448;-67
2023/05/23 04:47:43;;;;;;;;;;;;;;;;;;5074060;28;1069;-67
2023/05/23 04:50:09;;;;;;;;;;;;;;;;;;5039575;28;1126;-67
2023/05/23 04:52:34;;;;;;;;;;;;;;;;;;5073953;28;825;-67
2023/05/23 04:55:00;;;;;;;;;;;;;;;;;;5039070;28;1266;-67
2023/05/23 04:57:25;;;;;;;;;;;;;;;;;;5074117;28;774;-67
2023/05/23 04:59:51;;;;;;;;;;;;;;;;;;5038863;28;1279;-67
2023/05/23 05:02:16;;;;;;;;;;;;;;;;;;5074390;28;915;-67
2023/05/23 05:04:42;;;;;;;;;;;;;;;;;;5055581;28;1952;-67
2023/05/23 05:07:07;;;;;;;;;;;;;;;;;;5072888;28;955;-67
2023/05/23 05:09:32;;;;;;;;;;;;;;;;;;5055194;28;833;-67
2023/05/23 05:11:58;;;;;;;;;;;;;;;;;;5054859;28;932;-67
2023/05/23 05:14:24;;;;;;;;;;;;;;;;;;5055815;28;785;-67
2023/05/23 05:16:49;;;;;;;;;;;;;;;;;;5054733;28;1299;-67
2023/05/23 05:19:14;;;;;;;;;;;;;;;;;;5055203;28;869;-67
2023/05/23 05:21:40;;;;;;;;;;;;;;;;;;5073220;28;797;-67
2023/05/23 05:24:08;;;;;;;;;;;;;;;;;;5061571;28;1913;-67
2023/05/23 05:26:33;;;;;;;;;;;;;;;;;;5075122;28;849;-67
2023/05/23 05:28:58;;;;;;;;;;;;;;;;;;5074420;28;940;-68
2023/05/23 05:31:24;;;;;;;;;;;;;;;;;;5075002;28;882;-67
2023/05/23 05:33:49;;;;;;;;;;;;;;;;;;5092250;28;895;-66
2023/05/23 05:36:15;;;;;;;;;;;;;;;;;;5092157;28;840;-66
2023/05/23 05:38:40;;;;;;;;;;;;;;;;;;5073965;28;1106;-66
2023/05/23 05:41:05;;;;;;;;;;;;;;;;;;5092093;28;762;-67
2023/05/23 05:43:31;;;;;;;;;;;;;;;;;;5092578;28;1889;-66
2023/05/23 05:45:56;;;;;;;;;;;;;;;;;;5073763;28;1485;-66
2023/05/23 05:48:21;;;;;;;;;;;;;;;;;;5073985;28;1281;-65
2023/05/23 05:50:47;;;;;;;;;;;;;;;;;;5074257;28;1278;-65
2023/05/23 05:53:12;;;;;;;;;;;;;;;;;;5091391;28;809;-66
2023/05/23 05:55:37;;;;;;;;;;;;;;;;;;5074662;28;896;-65
2023/05/23 05:58:03;;;;;;;;;;;;;;;;;;5074232;28;877;-65
2023/05/23 06:00:29;;;;;;;;;;;;;;;;;;5074463;28;924;-66
2023/05/23 06:02:56;;;;;;;;;;;;;;;;;;5073987;28;1934;-65
2023/05/23 06:05:21;;;;;;;;;;;;;;;;;;5074090;28;1194;-65
2023/05/23 06:07:48;;;;;;;;;;;;;;;;;;5073654;28;1202;-65
2023/05/23 06:10:13;;;;;;;;;;;;;;;;;;5057241;28;1235;-65
2023/05/23 06:12:38;;;;;;;;;;;;;;;;;;5086046;28;1133;-65
2023/05/23 06:15:08;;;;;;;;;;;;;;;;;;5086716;28;1161;-65
2023/05/23 06:17:33;;;;;;;;;;;;;;;;;;5073586;28;1330;-65
2023/05/23 06:19:58;;;;;;;;;;;;;;;;;;5091695;28;1195;-65
2023/05/23 06:22:24;;;;;;;;;;;;;;;;;;5091579;28;1220;-65
2023/05/23 06:24:49;;;;;;;;;;;;;;;;;;5073078;28;1894;-65
2023/05/23 06:27:14;;;;;;;;;;;;;;;;;;5091569;28;833;-65
2023/05/23 06:29:40;;;;;;;;;;;;;;;;;;5091397;28;860;-65
2023/05/23 06:32:05;;;;;;;;;;;;;;;;;;5055859;28;1270;-65
2023/05/23 06:34:30;;;;;;;;;;;;;;;;;;5091378;28;857;-65
2023/05/23 06:36:56;;;;;;;;;;;;;;;;;;5072572;28;1339;-65
2023/05/23 06:39:21;;;;;;;;;;;;;;;;;;5091945;28;1168;-65
2023/05/23 06:41:46;;;;;;;;;;;;;;;;;;5091238;28;872;-65
2023/05/23 06:44:12;;;;;;;;;;;;;;;;;;5055966;28;1902;-65
2023/05/23 06:46:37;;;;;;;;;;;;;;;;;;5058125;28;1811;-66
2023/05/23 06:49:03;;;;;;;;;;;;;;;;;;5052332;28;1272;-66
2023/05/23 06:51:28;;;;;;;;;;;;;;;;;;5053621;28;920;-66
2023/05/23 06:53:55;;;;;;;;;;;;;;;;;;5070892;28;825;-66
2023/05/23 06:56:21;;;;;;;;;;;;;;;;;;5071251;28;833;-66
2023/05/23 06:58:46;;;;;;;;;;;;;;;;;;5070924;28;821;-66
2023/05/23 07:01:12;;;;;;;;;;;;;;;;;;5052802;28;1326;-66
2023/05/23 07:03:40;;;;;;;;;;;;;;;;;;5052803;28;1910;-66
2023/05/23 07:06:05;;;;;;;;;;;;;;;;;;5052705;28;1164;-66
2023/05/23 07:08:30;;;;;;;;;;;;;;;;;;5070759;28;991;-66
2023/05/23 07:10:56;;;;;;;;;;;;;;;;;;5070594;28;832;-66
2023/05/23 07:13:21;;;;;;;;;;;;;;;;;;5052635;28;1190;-66
2023/05/23 07:15:46;;;;;;;;;;;;;;;;;;5070398;28;924;-66
2023/05/23 07:18:12;;;;;;;;;;;;;;;;;;5052436;28;1147;-66
2023/05/23 07:20:37;;;;;;;;;;;;;;;;;;5052693;28;1385;-66
2023/05/23 07:23:02;;;;;;;;;;;;;;;;;;5070119;28;1945;-65
2023/05/23 07:25:28;;;;;;;;;;;;;;;;;;5052710;28;1531;-66
2023/05/23 07:27:53;;;;;;;;;;;;;;;;;;5052550;28;1193;-65
2023/05/23 07:30:20;;;;;;;;;;;;;;;;;;5053048;28;1394;-65
2023/05/23 07:32:46;;;;;;;;;;;;;;;;;;5053364;28;1445;-66
2023/05/23 07:35:12;;;;;;;;;;;;;;;;;;5053017;28;1303;-66
2023/05/23 07:37:37;;;;;;;;;;;;;;;;;;5071254;28;809;-66
2023/05/23 07:40:03;;;;;;;;;;;;;;;;;;5053006;28;938;-66
2023/05/23 07:42:28;;;;;;;;;;;;;;;;;;5054162;28;1251;-66
2023/05/23 07:44:54;;;;;;;;;;;;;;;;;;5036429;28;1960;-66
2023/05/23 07:47:19;;;;;;;;;;;;;;;;;;5052796;28;1259;-66
2023/05/23 07:49:46;;;;;;;;;;;;;;;;;;5070765;28;906;-66
2023/05/23 07:52:11;;;;;;;;;;;;;;;;;;5052092;28;1199;-66
2023/05/23 07:54:36;;;;;;;;;;;;;;;;;;5070560;28;821;-66
2023/05/23 07:57:02;;;;;;;;;;;;;;;;;;5052091;28;1230;-66
2023/05/23 07:59:28;;;;;;;;;;;;;;;;;;5052111;28;869;-66
2023/05/23 08:01:54;;;;;;;;;;;;;;;;;;5035385;28;1106;-66
2023/05/23 08:04:19;;;;;;;;;;;;;;;;;;5070008;28;1911;-66
2023/05/23 08:06:46;;;;;;;;;;;;;;;;;;5070503;28;948;-66
2023/05/23 08:09:11;;;;;;;;;;;;;;;;;;5069978;28;864;-66
2023/05/23 08:11:36;;;;;;;;;;;;;;;;;;5035392;28;1302;-66
2023/05/23 08:14:02;;;;;;;;;;;;;;;;;;5069891;28;877;-66
2023/05/23 08:16:27;;;;;;;;;;;;;;;;;;5071062;28;916;-66
2023/05/23 08:18:52;;;;;;;;;;;;;;;;;;5055544;28;2201;-66
2023/05/23 08:21:18;;;;;;;;;;;;;;;;;;5073843;28;821;-66
2023/05/23 08:23:43;;;;;;;;;;;;;;;;;;5056020;28;1965;-66
2023/05/23 08:26:08;;;;;;;;;;;;;;;;;;5073821;28;944;-66
2023/05/23 08:28:33;;;;;;;;;;;;;;;;;;5056592;28;1259;-68
2023/05/23 08:30:59;;;;;;;;;;;;;;;;;;5055567;28;1186;-67
2023/05/23 08:33:25;;;;;;;;;;;;;;;;;;5073848;28;789;-68
2023/05/23 08:35:50;;;;;;;;;;;;;;;;;;5073611;28;837;-68
2023/05/23 08:38:16;;;;;;;;;;;;;;;;;;5055736;28;1500;-67
2023/05/23 08:40:48;;;;;;;;;;;;;;;;;;5073822;28;841;-68
2023/05/23 08:43:13;;;;;;;;;;;;;;;;;;5074220;28;1951;-67
2023/05/23 08:45:39;;;;;;;;;;;;;;;;;;5055825;28;1007;-68
2023/05/23 08:48:07;;;;;;;;;;;;;;;;;;5040766;28;1270;-68
2023/05/23 08:50:34;;;;;;;;;;;;;;;;;;5032039;28;1282;-68
2023/05/23 08:53:00;;;;;;;;;;;;;;;;;;5032418;28;1211;-67
2023/05/23 08:55:28;;;;;;;;;;;;;;;;;;5032328;28;1247;-68
2023/05/23 08:57:55;;;;;;;;;;;;;;;;;;5033951;28;898;-68
2023/05/23 09:00:21;;;;;;;;;;;;;;;;;;5034067;28;830;-67
2023/05/23 09:02:46;;;;;;;;;;;;;;;;;;5034638;28;833;-67
2023/05/23 09:05:13;;;;;;;;;;;;;;;;;;5034427;28;1965;-68
2023/05/23 09:07:38;;;;;;;;;;;;;;;;;;5034191;28;907;-68
2023/05/23 09:10:04;;;;;;;;;;;;;;;;;;5034118;28;892;-68
2023/05/23 09:12:32;;;;;;;;;;;;;;;;;;5032324;28;882;-68
2023/05/23 09:14:57;;;;;;;;;;;;;;;;;;5033734;28;832;-68
2023/05/23 09:17:22;;;;;;;;;;;;;;;;;;5033466;28;801;-68
2023/05/23 09:19:48;;;;;;;;;;;;;;;;;;5031891;28;1316;-68
2023/05/23 09:22:13;;;;;;;;;;;;;;;;;;5033377;28;861;-68
2023/05/23 09:24:40;;;;;;;;;;;;;;;;;;5032507;28;1906;-68
2023/05/23 09:27:06;;;;;;;;;;;;;;;;;;5030365;28;1326;-68
2023/05/23 09:29:31;;;;;;;;;;;;;;;;;;5032496;28;916;-68
2023/05/23 09:32:09;;;;;;;;;;;;;;;;;;5032469;28;1070;-68
2023/05/23 09:34:34;;;;;;;;;;;;;;;;;;5032904;28;817;-68
2023/05/23 09:37:00;;;;;;;;;;;;;;;;;;5032664;28;909;-68
2023/05/23 09:39:25;;;;;;;;;;;;;;;;;;5015022;28;1192;-69
2023/05/23 09:41:50;;;;;;;;;;;;;;;;;;5032343;28;879;-68
2023/05/23 09:44:21;;;;;;;;;;;;;;;;;;5033097;28;1910;-68
2023/05/23 09:46:51;;;;;;;;;;;;;;;;;;5033845;28;1069;-68
2023/05/23 09:49:17;;;;;;;;;;;;;;;;;;5072809;28;900;-68
2023/05/23 09:51:42;;;;;;;;;;;;;;;;;;5054264;28;1318;-68
2023/05/23 09:54:08;;;;;;;;;;;;;;;;;;5072136;28;895;-68
2023/05/23 09:56:36;;;;;;;;;;;;;;;;;;5054333;28;825;-68
2023/05/23 09:59:01;;;;;;;;;;;;;;;;;;5072017;28;936;-68
2023/05/23 10:01:30;;;;;;;;;;;;;;;;;;5071993;28;821;-68
2023/05/23 10:03:57;;;;;;;;;;;;;;;;;;5071922;28;1965;-68
2023/05/23 10:06:36;;;;;;;;;;;;;;;;;;5072258;28;856;-68
2023/05/23 10:09:03;;;;;;;;;;;;;;;;;;5053988;28;1365;-67
2023/05/23 10:11:49;;;;;;;;;;;;;;;;;;5037569;28;1259;-67
2023/05/23 10:14:15;;;;;;;;;;;;;;;;;;5040103;28;1360;-68
2023/05/23 10:16:52;;;;;;;;;;;;;;;;;;5054693;28;1289;-67
2023/05/23 10:19:20;;;;;;;;;;;;;;;;;;5073086;28;943;-68
2023/05/23 10:21:58;;;;;;;;;;;;;;;;;;5055472;28;1164;-67
2023/05/23 10:24:27;;;;;;;;;;;;;;;;;;5055210;28;1890;-67
2023/05/23 10:26:53;;;;;;;;;;;;;;;;;;5072651;28;841;-68
2023/05/23 10:29:20;;;;;;;;;;;;;;;;;;5055036;28;1280;-67
2023/05/23 10:31:46;;;;;;;;;;;;;;;;;;5072211;28;1133;-67
2023/05/23 10:34:20;;;;;;;;;;;;;;;;;;5072991;28;959;-68
2023/05/23 10:37:04;;;;;;;;;;;;;;;;;;5072340;28;844;-68
2023/05/23 10:39:43;;;;;;;;;;;;;;;;;;5071011;28;939;-67
2023/05/23 10:42:16;;;;;;;;;;;;;;;;;;5053900;28;1381;-67
2023/05/23 10:44:41;;;;;;;;;;;;;;;;;;5036747;28;1906;-67
2023/05/23 10:47:06;;;;;;;;;;;;;;;;;;5053123;28;1345;-67
2023/05/23 10:49:42;;;;;;;;;;;;;;;;;;5071104;28;942;-67
2023/05/23 10:52:09;;;;;;;;;;;;;;;;;;5053523;28;920;-66
2023/05/23 10:54:40;;;;;;;;;;;;;;;;;;5071620;28;841;-66
2023/05/23 10:57:05;;;;;;;;;;;;;;;;;;5070839;28;896;-67
2023/05/23 10:59:31;;;;;;;;;;;;;;;;;;5070699;28;1078;-67
2023/05/23 11:01:56;;;;;;;;;;;;;;;;;;5070695;28;754;-67
2023/05/23 11:04:26;;;;;;;;;;;;;;;;;;5052725;28;1906;-68
2023/05/23 11:06:53;;;;;;;;;;;;;;;;;;5052839;28;1333;-67
2023/05/23 11:09:19;;;;;;;;;;;;;;;;;;5071557;28;872;-67
2023/05/23 11:12:04;;;;;;;;;;;;;;;;;;5071218;28;833;-67
2023/05/23 11:14:34;;;;;;;;;;;;;;;;;;5071421;28;923;-66
2023/05/23 11:17:00;;;;;;;;;;;;;;;;;;5053741;28;907;-66
2023/05/23 11:19:29;;;;;;;;;;;;;;;;;;5053174;28;1243;-66
2023/05/23 11:22:01;;;;;;;;;;;;;;;;;;5053507;28;1111;-67
2023/05/23 11:24:45;;;;;;;;;;;;;;;;;;5071277;28;1886;-67
2023/05/23 11:27:11;;;;;;;;;;;;;;;;;;5052879;28;1030;-67
2023/05/23 11:29:36;;;;;;;;;;;;;;;;;;5052476;28;1161;-67
2023/05/23 11:32:09;;;;;;;;;;;;;;;;;;5071086;28;877;-67
2023/05/23 11:34:36;;;;;;;;;;;;;;;;;;5070651;28;928;-67
2023/05/23 11:37:02;;;;;;;;;;;;;;;;;;5052740;28;1900;-67
2023/05/23 11:39:27;;;;;;;;;;;;;;;;;;5071393;28;1055;-67
2023/05/23 11:41:59;;;;;;;;;;;;;;;;;;5052571;28;730;-67
2023/05/23 11:44:24;;;;;;;;;;;;;;;;;;5071283;28;1965;-67
2023/05/23 11:47:03;;;;;;;;;;;;;;;;;;5070387;28;1215;-67
2023/05/23 11:49:29;;;;;;;;;;;;;;;;;;5071339;28;809;-67
2023/05/23 11:51:55;;;;;;;;;;;;;;;;;;5072731;28;848;-66
2023/05/23 11:54:26;;;;;;;;;;;;;;;;;;5057339;28;868;-66
2023/05/23 11:56:52;;;;;;;;;;;;;;;;;;5074780;28;903;-67
2023/05/23 11:59:17;;;;;;;;;;;;;;;;;;5040186;28;1200;-67
2023/05/23 12:01:43;;;;;;;;;;;;;;;;;;5074767;28;948;-67
2023/05/23 12:04:10;;;;;;;;;;;;;;;;;;5075091;28;1917;-67
2023/05/23 12:06:37;;;;;;;;;;;;;;;;;;5075385;28;853;-67
2023/05/23 12:09:02;;;;;;;;;;;;;;;;;;5075328;28;884;-67
2023/05/23 12:11:30;;;;;;;;;;;;;;;;;;5075685;28;933;-67
2023/05/23 12:13:55;;;;;;;;;;;;;;;;;;5056597;28;1210;-67
2023/05/23 12:16:21;;;;;;;;;;;;;;;;;;5075059;28;817;-67
2023/05/23 12:18:46;;;;;;;;;;;;;;;;;;5056794;28;1242;-69
2023/05/23 12:21:11;;;;;;;;;;;;;;;;;;5075005;28;908;-68
2023/05/23 12:23:38;;;;;;;;;;;;;;;;;;5074896;28;1917;-68
2023/05/23 12:26:05;;;;;;;;;;;;;;;;;;5074463;28;844;-67
2023/05/23 12:28:49;;;;;;;;;;;;;;;;;;5056745;28;1072;-67
2023/05/23 12:31:14;;;;;;;;;;;;;;;;;;5074694;28;912;-67
2023/05/23 12:33:42;;;;;;;;;;;;;;;;;;5056634;28;1224;-67
2023/05/23 12:36:08;;;;;;;;;;;;;;;;;;5074422;28;876;-68
2023/05/23 12:38:36;;;;;;;;;;;;;;;;;;5074462;28;901;-67
2023/05/23 12:41:14;;;;;;;;;;;;;;;;;;5056785;28;1332;-67
2023/05/23 12:43:40;;;;;;;;;;;;;;;;;;5074020;28;1913;-67
2023/05/23 12:46:06;;;;;;;;;;;;;;;;;;5074492;28;872;-68
2023/05/23 12:48:32;;;;;;;;;;;;;;;;;;5073777;28;1101;-68
2023/05/23 12:50:58;;;;;;;;;;;;;;;;;;5054946;28;1211;-68
2023/05/23 12:53:23;;;;;;;;;;;;;;;;;;5073974;28;1058;-68
2023/05/23 12:55:48;;;;;;;;;;;;;;;;;;5056053;28;1169;-68
2023/05/23 12:58:14;;;;;;;;;;;;;;;;;;5073831;28;949;-68
2023/05/23 13:00:42;;;;;;;;;;;;;;;;;;5073799;28;880;-67
2023/05/23 13:03:08;;;;;;;;;;;;;;;;;;5072738;28;2042;-67
2023/05/23 13:05:33;;;;;;;;;;;;;;;;;;5073756;28;903;-67
2023/05/23 13:07:59;;;;;;;;;;;;;;;;;;5073130;28;877;-67
2023/05/23 13:10:24;;;;;;;;;;;;;;;;;;5073686;28;925;-67
2023/05/23 13:12:50;;;;;;;;;;;;;;;;;;5073671;28;801;-67
2023/05/23 13:15:16;;;;;;;;;;;;;;;;;;5055575;28;897;-67
2023/05/23 13:17:41;;;;;;;;;;;;;;;;;;5055326;28;1745;-67
2023/05/23 13:20:08;;;;;;;;;;;;;;;;;;5055350;28;1548;-68
2023/05/23 13:22:33;;;;;;;;;;;;;;;;;;5073489;28;1065;-68
2023/05/23 13:24:58;;;;;;;;;;;;;;;;;;5073155;28;1900;-68
2023/05/23 13:27:24;;;;;;;;;;;;;;;;;;5073472;28;844;-68
2023/05/23 13:29:49;;;;;;;;;;;;;;;;;;5055093;28;924;-68
2023/05/23 13:32:15;;;;;;;;;;;;;;;;;;5073820;28;844;-69
2023/05/23 13:34:40;;;;;;;;;;;;;;;;;;5073109;28;1105;-68
2023/05/23 13:37:06;;;;;;;;;;;;;;;;;;5072708;28;850;-68
2023/05/23 13:39:31;;;;;;;;;;;;;;;;;;5073856;28;1015;-68
2023/05/23 13:41:57;;;;;;;;;;;;;;;;;;5042194;28;1300;-68
2023/05/23 13:44:22;;;;;;;;;;;;;;;;;;5073577;28;1917;-69
2023/05/23 13:46:47;;;;;;;;;;;;;;;;;;5072883;28;1204;-68
2023/05/23 13:49:13;;;;;;;;;;;;;;;;;;5073141;28;857;-68
2023/05/23 13:51:38;;;;;;;;;;;;;;;;;;5073163;28;896;-68
2023/05/23 13:54:04;;;;;;;;;;;;;;;;;;5072948;28;813;-68
2023/05/23 13:56:30;;;;;;;;;;;;;;;;;;5073323;28;955;-68
2023/05/23 13:58:56;;;;;;;;;;;;;;;;;;5072384;28;876;-68
2023/05/23 14:01:21;;;;;;;;;;;;;;;;;;5072713;28;857;-68
2023/05/23 14:03:47;;;;;;;;;;;;;;;;;;5072703;28;1906;-68
2023/05/23 14:06:12;;;;;;;;;;;;;;;;;;5054556;28;845;-66
2023/05/23 14:08:38;;;;;;;;;;;;;;;;;;5072163;28;915;-66
2023/05/23 14:11:03;;;;;;;;;;;;;;;;;;5072115;28;896;-67
2023/05/23 14:13:29;;;;;;;;;;;;;;;;;;5037135;28;1223;-67
2023/05/23 14:15:54;;;;;;;;;;;;;;;;;;5071928;28;860;-67
2023/05/23 14:18:19;;;;;;;;;;;;;;;;;;5054593;28;1124;-67
2023/05/23 14:20:48;;;;;;;;;;;;;;;;;;5072789;28;832;-67
2023/05/23 14:23:13;;;;;;;;;;;;;;;;;;5072478;28;1909;-67
2023/05/23 14:25:39;;;;;;;;;;;;;;;;;;5072699;28;860;-66
2023/05/23 14:28:04;;;;;;;;;;;;;;;;;;5071995;28;833;-67
2023/05/23 14:30:29;;;;;;;;;;;;;;;;;;5071922;28;836;-67
2023/05/23 14:32:55;;;;;;;;;;;;;;;;;;5071755;28;876;-67
2023/05/23 14:35:21;;;;;;;;;;;;;;;;;;5071221;28;1049;-67
2023/05/23 14:37:47;;;;;;;;;;;;;;;;;;5071335;28;959;-67
2023/05/23 14:40:13;;;;;;;;;;;;;;;;;;5071039;28;864;-67
2023/05/23 14:42:38;;;;;;;;;;;;;;;;;;5071509;28;844;-67
2023/05/23 14:45:04;;;;;;;;;;;;;;;;;;5053230;28;1882;-67
2023/05/23 14:47:30;;;;;;;;;;;;;;;;;;5071657;28;1250;-67
2023/05/23 14:49:56;;;;;;;;;;;;;;;;;;5071534;28;908;-68
2023/05/23 14:52:21;;;;;;;;;;;;;;;;;;5053439;28;1012;-67
2023/05/23 14:54:47;;;;;;;;;;;;;;;;;;5036949;28;905;-67
2023/05/23 14:57:12;;;;;;;;;;;;;;;;;;5071389;28;1019;-67
2023/05/23 14:59:37;;;;;;;;;;;;;;;;;;5071440;28;939;-67
2023/05/23 15:02:03;;;;;;;;;;;;;;;;;;5070735;28;892;-67
2023/05/23 15:04:29;;;;;;;;;;;;;;;;;;5053776;28;1909;-67
2023/05/23 15:06:54;;;;;;;;;;;;;;;;;;5071484;28;908;-67
2023/05/23 15:09:20;;;;;;;;;;;;;;;;;;5071852;28;1010;-67
2023/05/23 15:11:48;;;;;;;;;;;;;;;;;;5072127;28;920;-68
2023/05/23 15:14:13;;;;;;;;;;;;;;;;;;5054227;28;896;-67
2023/05/23 15:16:39;;;;;;;;;;;;;;;;;;5054263;28;961;-68
2023/05/23 15:19:05;;;;;;;;;;;;;;;;;;5053269;28;1244;-67
2023/05/23 15:21:31;;;;;;;;;;;;;;;;;;5054162;28;1216;-67
2023/05/23 15:23:58;;;;;;;;;;;;;;;;;;5071121;28;1963;-68
2023/05/23 15:26:24;;;;;;;;;;;;;;;;;;5053788;28;935;-67
2023/05/23 15:28:49;;;;;;;;;;;;;;;;;;5071414;28;983;-68
2023/05/23 15:31:14;;;;;;;;;;;;;;;;;;5071454;28;1170;-68
2023/05/23 15:33:40;;;;;;;;;;;;;;;;;;5071679;28;936;-67
2023/05/23 15:36:06;;;;;;;;;;;;;;;;;;5070667;28;860;-67
2023/05/23 15:38:31;;;;;;;;;;;;;;;;;;5071146;28;1024;-67
2023/05/23 15:40:58;;;;;;;;;;;;;;;;;;5071158;28;880;-67
2023/05/23 15:43:25;;;;;;;;;;;;;;;;;;5070747;28;1897;-67
2023/05/23 15:45:51;;;;;;;;;;;;;;;;;;5070677;28;1083;-67
2023/05/23 15:48:16;;;;;;;;;;;;;;;;;;5070109;28;1367;-67
2023/05/23 15:50:42;;;;;;;;;;;;;;;;;;5071047;28;864;-67
2023/05/23 15:53:07;;;;;;;;;;;;;;;;;;5070264;28;934;-67
2023/05/23 15:55:33;;;;;;;;;;;;;;;;;;5053392;28;892;-68
2023/05/23 15:57:58;;;;;;;;;;;;;;;;;;5070681;28;1046;-67
2023/05/23 16:00:24;;;;;;;;;;;;;;;;;;5070414;28;874;-67
2023/05/23 16:02:49;;;;;;;;;;;;;;;;;;5070837;28;861;-68
2023/05/23 16:05:15;;;;;;;;;;;;;;;;;;5070286;28;1913;-68
2023/05/23 16:07:40;;;;;;;;;;;;;;;;;;5071207;28;928;-68
2023/05/23 16:10:05;;;;;;;;;;;;;;;;;;5052084;28;1124;-68
2023/05/23 16:12:31;;;;;;;;;;;;;;;;;;5071261;28;884;-68
2023/05/23 16:14:56;;;;;;;;;;;;;;;;;;5036293;28;1239;-67
2023/05/23 16:17:21;;;;;;;;;;;;;;;;;;5069996;28;925;-68
2023/05/23 16:19:48;;;;;;;;;;;;;;;;;;5070592;28;840;-68
2023/05/23 16:22:13;;;;;;;;;;;;;;;;;;5070086;28;943;-67
2023/05/23 16:24:39;;;;;;;;;;;;;;;;;;5052469;28;1906;-68
2023/05/23 16:27:04;;;;;;;;;;;;;;;;;;5070165;28;848;-68
2023/05/23 16:29:30;;;;;;;;;;;;;;;;;;5070471;28;974;-67
2023/05/23 16:31:55;;;;;;;;;;;;;;;;;;5070289;28;797;-68
2023/05/23 16:34:20;;;;;;;;;;;;;;;;;;5051585;28;864;-68
2023/05/23 16:36:46;;;;;;;;;;;;;;;;;;5070952;28;939;-68
2023/05/23 16:39:11;;;;;;;;;;;;;;;;;;5073790;28;931;-68
2023/05/23 16:41:36;;;;;;;;;;;;;;;;;;5074264;28;880;-68
2023/05/23 16:44:02;;;;;;;;;;;;;;;;;;5056306;28;1894;-67
2023/05/23 16:46:27;;;;;;;;;;;;;;;;;;5074658;28;911;-67
2023/05/23 16:48:53;;;;;;;;;;;;;;;;;;5073989;28;1131;-67
2023/05/23 16:51:18;;;;;;;;;;;;;;;;;;5073661;28;844;-67
2023/05/23 16:53:44;;;;;;;;;;;;;;;;;;5074260;28;966;-67
2023/05/23 16:56:09;;;;;;;;;;;;;;;;;;5074140;28;903;-67
2023/05/23 16:58:37;;;;;;;;;;;;;;;;;;5074451;28;908;-68
2023/05/23 17:01:02;;;;;;;;;;;;;;;;;;5073962;28;978;-68
2023/05/23 17:03:28;;;;;;;;;;;;;;;;;;5073413;28;1969;-67
2023/05/23 17:05:54;;;;;;;;;;;;;;;;;;5073613;28;1120;-68